Time;durP1;ratioP1;P1;durP2;ratioP2;P2;SDS_P1;SDS_P2;PMS_P1;PMS_P2;Temp;Humidity;BMP_temperature;BMP_pressure;BME280_temperature;BME280_humidity;BME280_pressure;Samples;Min_cycle;Max_cycle;Signal;HPM_P1;HPM_P2
2022/09/28 00:00:31;;;;;;;0.60;0.60;;;10.20;99.90;;;;;;5198155;28;20039;-73
2022/09/28 00:03:05;;;;;;;0.63;0.63;;;10.10;99.90;;;;;;5234502;28;20034;-72
2022/09/28 00:05:39;;;;;;;0.70;0.68;;;10.10;99.90;;;;;;5226430;28;20055;-73
2022/09/28 00:08:10;;;;;;;0.68;0.60;;;10.10;99.90;;;;;;5218565;28;20047;-73
2022/09/28 00:10:42;;;;;;;0.50;0.50;;;10.10;99.90;;;;;;5217195;28;20029;-73
2022/09/28 00:13:13;;;;;;;0.75;0.70;;;10.10;99.90;;;;;;5220187;28;20023;-73
2022/09/28 00:15:46;;;;;;;0.88;0.88;;;10.00;99.90;;;;;;5202223;28;20033;-73
2022/09/28 00:18:18;;;;;;;1.38;0.60;;;10.00;99.90;;;;;;5200092;28;20039;-73
2022/09/28 00:21:01;;;;;;;0.68;0.68;;;10.00;99.90;;;;;;5219105;28;20565;-73
2022/09/28 00:23:33;;;;;;;0.63;0.63;;;9.90;99.90;;;;;;5212300;28;20372;-73
2022/09/28 00:26:10;;;;;;;0.47;0.47;;;10.10;99.90;;;;;;5201359;28;20041;-73
2022/09/28 00:28:44;;;;;;;0.60;0.60;;;10.10;99.90;;;;;;5201529;28;20045;-73
2022/09/28 00:31:16;;;;;;;0.65;0.65;;;10.20;99.90;;;;;;5233091;28;20449;-73
2022/09/28 00:33:52;;;;;;;0.50;0.50;;;10.20;99.90;;;;;;5222546;28;20038;-73
2022/09/28 00:36:27;;;;;;;0.85;0.85;;;10.20;99.90;;;;;;5219362;28;20214;-73
2022/09/28 00:39:02;;;;;;;0.65;0.65;;;10.10;99.90;;;;;;5220169;28;20438;-73
2022/09/28 00:41:34;;;;;;;0.85;0.68;;;10.10;99.90;;;;;;5220250;28;20025;-73
2022/09/28 00:44:26;;;;;;;0.95;0.80;;;10.40;99.90;;;;;;5219241;28;20028;-73
2022/09/28 00:47:06;;;;;;;0.88;0.70;;;10.40;99.90;;;;;;5182143;28;20030;-72
2022/09/28 00:50:12;;;;;;;0.60;0.60;;;10.50;99.90;;;;;;5217298;28;20941;-72
2022/09/28 00:53:13;;;;;;;0.50;0.50;;;10.60;99.90;;;;;;5200204;28;20033;-73
2022/09/28 00:55:51;;;;;;;0.75;0.63;;;10.70;99.90;;;;;;5218841;28;20036;-74
2022/09/28 00:58:35;;;;;;;0.50;0.50;;;10.80;99.90;;;;;;5219034;28;20025;-73
2022/09/28 01:01:07;;;;;;;2.22;1.27;;;10.90;99.90;;;;;;5221636;28;20039;-74
2022/09/28 01:03:44;;;;;;;0.50;0.50;;;10.90;99.90;;;;;;5222958;28;20210;-73
2022/09/28 01:06:26;;;;;;;0.90;0.75;;;11.00;99.90;;;;;;5195831;28;20059;-73
2022/09/28 01:09:02;;;;;;;0.70;0.70;;;10.90;99.90;;;;;;5184903;28;20510;-73
2022/09/28 01:11:37;;;;;;;0.60;0.60;;;11.00;99.90;;;;;;5204235;28;20371;-73
2022/09/28 01:14:12;;;;;;;0.55;0.55;;;11.00;99.90;;;;;;5205789;28;20051;-73
2022/09/28 01:17:13;;;;;;;0.73;0.73;;;10.90;99.90;;;;;;5224805;28;20041;-73
2022/09/28 01:20:09;;;;;;;0.60;0.60;;;10.70;99.90;;;;;;5204524;28;20463;-75
2022/09/28 01:22:49;;;;;;;0.80;0.80;;;10.40;99.90;;;;;;5222588;28;20029;-75
2022/09/28 01:25:41;;;;;;;0.63;0.60;;;10.10;99.90;;;;;;5222000;28;20039;-74
2022/09/28 01:28:20;;;;;;;0.70;0.70;;;9.80;99.90;;;;;;5202607;28;20043;-72
2022/09/28 01:31:06;;;;;;;0.70;0.70;;;9.60;99.90;;;;;;5212443;28;20218;-73
2022/09/28 01:33:40;;;;;;;0.80;0.52;;;9.70;99.90;;;;;;5222314;28;20028;-72
2022/09/28 01:36:20;;;;;;;3.35;0.80;;;9.80;99.90;;;;;;5223500;28;20038;-73
2022/09/28 01:38:58;;;;;;;4.07;0.88;;;10.00;99.90;;;;;;5219891;28;20459;-73
2022/09/28 01:41:35;;;;;;;1.13;0.68;;;10.00;99.90;;;;;;5219705;28;20023;-73
2022/09/28 01:44:13;;;;;;;0.82;0.82;;;9.80;99.90;;;;;;5219192;28;20047;-74
2022/09/28 01:46:47;;;;;;;0.75;0.75;;;9.70;99.90;;;;;;5217194;28;20036;-73
2022/09/28 01:49:30;;;;;;;0.73;0.73;;;9.50;99.90;;;;;;5184360;28;20028;-73
2022/09/28 01:52:05;;;;;;;3.40;0.73;;;9.30;99.90;;;;;;5217833;28;20051;-73
2022/09/28 01:54:55;;;;;;;0.90;0.90;;;9.10;99.90;;;;;;5218162;28;20045;-73
2022/09/28 01:57:39;;;;;;;0.60;0.60;;;9.00;99.90;;;;;;5200765;28;20025;-73
2022/09/28 02:00:22;;;;;;;3.03;1.15;;;8.80;99.90;;;;;;5223671;28;20420;-73
2022/09/28 02:03:12;;;;;;;1.67;1.05;;;8.60;99.90;;;;;;5229312;28;20039;-73
2022/09/28 02:05:56;;;;;;;1.50;1.30;;;8.50;99.90;;;;;;5188629;28;20045;-74
2022/09/28 02:08:45;;;;;;;0.90;0.90;;;8.30;99.90;;;;;;5198112;28;20029;-74
2022/09/28 02:11:19;;;;;;;0.68;0.68;;;8.10;99.90;;;;;;5198165;28;20032;-73
2022/09/28 02:14:09;;;;;;;1.65;0.90;;;7.90;99.90;;;;;;5209798;28;20025;-74
2022/09/28 02:16:46;;;;;;;1.58;0.70;;;7.70;99.90;;;;;;5214162;28;20596;-73
2022/09/28 02:19:26;;;;;;;0.73;0.73;;;7.50;99.90;;;;;;5217282;28;20032;-73
2022/09/28 02:22:03;;;;;;;0.70;0.70;;;7.40;99.90;;;;;;5201828;28;20510;-73
2022/09/28 02:24:51;;;;;;;0.75;0.75;;;7.40;99.90;;;;;;5221425;28;20587;-73
2022/09/28 02:27:38;;;;;;;0.98;0.90;;;7.30;99.90;;;;;;5198653;28;20033;-73
2022/09/28 02:30:10;;;;;;;0.70;0.50;;;7.50;99.90;;;;;;5204671;28;20042;-75
2022/09/28 02:32:46;;;;;;;0.60;0.60;;;7.60;99.90;;;;;;5219059;28;20036;-75
2022/09/28 02:35:21;;;;;;;0.50;0.50;;;8.00;99.90;;;;;;5214784;28;20025;-72
2022/09/28 02:37:52;;;;;;;;;;;8.50;99.90;;;;;;5217423;28;20045;-72
2022/09/28 02:40:36;;;;;;;0.75;0.73;;;8.80;99.90;;;;;;5216886;28;19915;-72
2022/09/28 02:43:10;;;;;;;0.43;0.43;;;9.00;99.90;;;;;;5216469;28;20372;-73
2022/09/28 02:45:53;;;;;;;1.02;0.63;;;9.50;99.90;;;;;;5214433;28;20033;-74
2022/09/28 02:48:33;;;;;;;0.60;0.60;;;10.20;99.90;;;;;;5217411;28;20033;-74
2022/09/28 02:51:26;;;;;;;0.70;0.70;;;10.70;99.90;;;;;;5217107;28;20048;-74
2022/09/28 02:54:29;;;;;;;0.60;0.60;;;10.70;99.90;;;;;;5216343;28;20622;-73
2022/09/28 02:57:32;;;;;;;0.68;0.68;;;10.90;99.90;;;;;;5199200;28;20043;-73
2022/09/28 03:00:18;;;;;;;0.65;0.65;;;10.90;99.90;;;;;;5206293;28;20390;-73
2022/09/28 03:02:52;;;;;;;0.55;0.55;;;10.80;99.90;;;;;;5232353;28;20038;-72
2022/09/28 03:05:40;;;;;;;0.63;0.63;;;10.80;99.90;;;;;;5228040;28;20052;-72
2022/09/28 03:08:31;;;;;;;0.85;0.60;;;10.70;99.90;;;;;;5202646;28;20467;-73
2022/09/28 03:11:08;;;;;;;0.68;0.68;;;10.50;99.90;;;;;;5219539;28;20029;-72
2022/09/28 03:13:40;;;;;;;0.60;0.60;;;10.60;99.90;;;;;;5209011;28;20048;-73
2022/09/28 03:16:21;;;;;;;0.88;0.65;;;10.70;99.90;;;;;;5208185;28;20040;-73
2022/09/28 03:18:52;;;;;;;2.60;0.90;;;10.60;99.90;;;;;;5216006;28;20028;-73
2022/09/28 03:21:23;;;;;;;0.40;0.40;;;10.60;99.90;;;;;;5216677;28;20314;-73
2022/09/28 03:23:55;;;;;;;1.13;0.60;;;10.70;99.90;;;;;;5198714;28;20037;-73
2022/09/28 03:26:26;;;;;;;0.50;0.50;;;10.70;99.90;;;;;;5215555;28;20257;-73
2022/09/28 03:28:58;;;;;;;0.70;0.70;;;10.80;99.90;;;;;;5216277;28;20636;-72
2022/09/28 03:31:31;;;;;;;0.50;0.50;;;10.80;99.90;;;;;;5197878;28;20468;-73
2022/09/28 03:34:06;;;;;;;0.60;0.60;;;10.90;99.90;;;;;;5220403;28;20031;-73
2022/09/28 03:36:40;;;;;;;1.75;0.80;;;10.90;99.90;;;;;;5225273;28;20041;-73
2022/09/28 03:39:11;;;;;;;0.80;0.80;;;10.90;99.90;;;;;;5197848;28;20025;-73
2022/09/28 03:41:45;;;;;;;0.70;0.70;;;11.00;99.90;;;;;;5197117;28;20037;-73
2022/09/28 03:44:16;;;;;;;0.80;0.80;;;11.10;99.90;;;;;;5216900;28;20028;-73
2022/09/28 03:46:47;;;;;;;0.77;0.77;;;11.00;99.90;;;;;;5202356;28;20534;-73
2022/09/28 03:49:21;;;;;;;0.60;0.60;;;11.00;99.90;;;;;;5223551;28;20029;-72
2022/09/28 03:51:52;;;;;;;1.08;0.68;;;10.90;99.90;;;;;;5206184;28;20336;-72
2022/09/28 03:54:24;;;;;;;0.70;0.70;;;10.90;99.90;;;;;;5221966;28;20039;-73
2022/09/28 03:56:55;;;;;;;0.45;0.45;;;10.80;99.90;;;;;;5201913;28;20044;-72
2022/09/28 03:59:26;;;;;;;0.90;0.90;;;10.70;99.90;;;;;;5219479;28;20037;-73
2022/09/28 04:01:59;;;;;;;0.65;0.65;;;10.70;99.90;;;;;;5213058;28;20048;-73
2022/09/28 04:04:31;;;;;;;1.00;0.50;;;10.60;99.90;;;;;;5212642;28;20059;-73
2022/09/28 04:07:04;;;;;;;0.52;0.50;;;10.60;99.90;;;;;;5210141;28;20029;-73
2022/09/28 04:09:35;;;;;;;0.50;0.50;;;10.50;99.90;;;;;;5220548;28;20025;-73
2022/09/28 04:12:07;;;;;;;0.60;0.60;;;10.40;99.90;;;;;;5202206;28;20281;-73
2022/09/28 04:14:40;;;;;;;1.30;0.82;;;10.20;99.90;;;;;;5219357;28;20039;-72
2022/09/28 04:17:14;;;;;;;0.80;0.80;;;10.00;99.90;;;;;;5221093;28;20039;-74
2022/09/28 04:19:46;;;;;;;0.75;0.75;;;9.80;99.90;;;;;;5203672;28;20040;-73
2022/09/28 04:22:19;;;;;;;0.80;0.80;;;9.60;99.90;;;;;;5187304;28;20059;-72
2022/09/28 04:24:53;;;;;;;0.80;0.80;;;9.40;99.90;;;;;;5221275;28;20025;-74
2022/09/28 04:30:20;;;;;;;2.30;0.70;;;8.70;99.90;;;;;;5222245;28;20021;-73
2022/09/28 04:32:54;;;;;;;1.85;0.98;;;8.50;99.90;;;;;;5228691;28;20559;-73
2022/09/28 04:35:27;;;;;;;0.80;0.80;;;8.40;99.90;;;;;;5213650;28;20031;-73
2022/09/28 04:38:01;;;;;;;0.70;0.70;;;8.30;99.90;;;;;;5205975;28;20277;-73
2022/09/28 04:40:32;;;;;;;2.17;0.80;;;8.40;99.90;;;;;;5189900;28;20027;-72
2022/09/28 04:43:03;;;;;;;2.83;0.98;;;8.50;99.90;;;;;;5212460;28;20036;-72
2022/09/28 04:45:35;;;;;;;1.10;0.82;;;8.70;99.90;;;;;;5224085;28;20032;-73
2022/09/28 04:48:06;;;;;;;0.50;0.50;;;8.80;99.90;;;;;;5206609;28;20342;-72
2022/09/28 04:50:38;;;;;;;1.90;0.80;;;9.00;99.90;;;;;;5221266;28;20048;-72
2022/09/28 04:53:09;;;;;;;0.85;0.60;;;9.10;99.90;;;;;;5224469;28;20496;-72
2022/09/28 04:55:40;;;;;;;0.77;0.77;;;9.10;99.90;;;;;;5223867;28;20025;-72
2022/09/28 04:58:14;;;;;;;2.05;0.52;;;9.10;99.90;;;;;;5190749;28;20017;-72
2022/09/28 05:00:45;;;;;;;0.65;0.60;;;9.00;99.90;;;;;;5205297;28;20053;-72
2022/09/28 05:03:17;;;;;;;1.83;0.60;;;8.90;99.90;;;;;;5216794;28;20334;-73
2022/09/28 05:05:48;;;;;;;0.88;0.88;;;8.80;99.90;;;;;;5212105;28;20044;-73
2022/09/28 05:08:19;;;;;;;0.40;0.40;;;8.70;99.90;;;;;;5201312;28;20039;-71
2022/09/28 05:11:07;;;;;;;0.75;0.75;;;8.70;99.90;;;;;;5206218;28;20032;-73
2022/09/28 05:13:44;;;;;;;1.25;0.80;;;8.70;99.90;;;;;;5223165;28;20025;-74
2022/09/28 05:16:16;;;;;;;1.20;0.90;;;8.70;99.90;;;;;;5223013;28;20029;-74
2022/09/28 05:18:49;;;;;;;0.68;0.68;;;8.70;99.90;;;;;;5205567;28;20036;-71
2022/09/28 05:21:20;;;;;;;0.88;0.88;;;8.70;99.90;;;;;;5204366;28;20527;-73
2022/09/28 05:23:57;;;;;;;1.98;1.10;;;8.70;99.90;;;;;;5210263;28;20025;-73
2022/09/28 05:26:29;;;;;;;0.52;0.52;;;8.70;99.90;;;;;;5188166;28;20389;-73
2022/09/28 05:29:03;;;;;;;1.10;0.93;;;8.70;99.90;;;;;;5203878;28;20017;-73
2022/09/28 05:31:34;;;;;;;1.30;1.20;;;8.70;99.90;;;;;;5184375;28;20033;-73
2022/09/28 05:34:05;;;;;;;1.85;1.17;;;8.80;99.90;;;;;;5211518;28;20037;-73
2022/09/28 05:36:38;;;;;;;0.98;0.88;;;8.90;99.90;;;;;;5205383;28;20028;-73
2022/09/28 05:39:12;;;;;;;2.15;1.10;;;9.00;99.90;;;;;;5197222;28;20033;-72
2022/09/28 05:41:46;;;;;;;3.08;1.48;;;9.10;99.90;;;;;;5211658;28;20036;-73
2022/09/28 05:44:17;;;;;;;2.42;1.92;;;9.30;99.90;;;;;;5202849;28;20033;-72
2022/09/28 05:46:50;;;;;;;3.38;1.20;;;9.60;99.90;;;;;;5202658;28;20033;-72
2022/09/28 05:49:21;;;;;;;1.90;1.30;;;10.00;99.90;;;;;;5202955;28;20345;-72
2022/09/28 05:51:54;;;;;;;1.83;1.13;;;10.30;99.90;;;;;;5198411;28;20029;-71
2022/09/28 05:54:28;;;;;;;1.30;1.10;;;10.60;99.90;;;;;;5204755;28;20447;-71
2022/09/28 05:57:03;;;;;;;0.95;0.90;;;10.70;99.90;;;;;;5208502;28;20562;-72
2022/09/28 05:59:35;;;;;;;1.98;1.25;;;10.90;99.90;;;;;;5199818;28;20020;-71
2022/09/28 06:02:08;;;;;;;2.88;1.15;;;11.00;99.90;;;;;;5175921;28;20067;-72
2022/09/28 06:04:42;;;;;;;2.03;1.40;;;11.20;99.90;;;;;;5205240;28;20651;-72
2022/09/28 06:07:20;;;;;;;4.93;1.45;;;11.30;99.90;;;;;;5215322;28;20033;-73
2022/09/28 06:09:52;;;;;;;1.58;1.48;;;11.40;99.90;;;;;;5204114;28;20021;-73
2022/09/28 06:12:24;;;;;;;1.20;1.10;;;11.60;99.90;;;;;;5187330;28;20029;-73
2022/09/28 06:14:59;;;;;;;1.63;1.27;;;11.80;99.90;;;;;;5186001;28;20462;-73
2022/09/28 06:17:31;;;;;;;1.90;1.77;;;12.00;99.90;;;;;;5189725;28;20231;-72
2022/09/28 06:20:02;;;;;;;3.22;2.33;;;12.20;99.90;;;;;;5215103;28;20025;-72
2022/09/28 06:22:34;;;;;;;4.80;2.38;;;12.10;99.90;;;;;;5212176;28;20041;-72
2022/09/28 06:25:09;;;;;;;2.08;1.75;;;12.20;99.90;;;;;;5197353;28;20048;-73
2022/09/28 06:27:41;;;;;;;12.20;2.30;;;12.30;99.90;;;;;;5201413;28;20049;-73
2022/09/28 06:30:15;;;;;;;2.63;1.77;;;12.50;99.90;;;;;;5181378;28;20051;-72
2022/09/28 06:32:46;;;;;;;2.30;1.85;;;12.50;99.90;;;;;;5223307;28;20576;-71
2022/09/28 06:35:18;;;;;;;2.95;1.40;;;12.70;99.90;;;;;;5224109;28;20035;-73
2022/09/28 06:37:49;;;;;;;2.33;1.70;;;12.60;99.90;;;;;;5185152;28;20068;-73
2022/09/28 06:40:21;;;;;;;1.85;1.20;;;12.70;99.90;;;;;;5201428;28;20529;-72
2022/09/28 06:43:02;;;;;;;2.00;1.30;;;12.80;99.90;;;;;;5217330;28;20043;-72
2022/09/28 06:45:36;;;;;;;1.58;1.48;;;12.80;99.90;;;;;;5205530;28;20024;-72
2022/09/28 06:48:12;;;;;;;2.55;1.45;;;13.00;99.90;;;;;;5198520;28;20384;-72
2022/09/28 06:50:46;;;;;;;6.07;1.25;;;12.70;99.90;;;;;;5195660;28;20028;-72
2022/09/28 06:53:18;;;;;;;1.42;1.30;;;13.00;99.90;;;;;;5215568;28;20035;-72
2022/09/28 06:55:52;;;;;;;2.60;1.50;;;13.40;99.90;;;;;;5200053;28;20537;-72
2022/09/28 06:58:26;;;;;;;2.63;1.67;;;13.20;99.90;;;;;;5202496;28;20050;-71
2022/09/28 07:00:59;;;;;;;3.27;1.17;;;13.40;99.90;;;;;;5182583;28;20043;-72
2022/09/28 07:03:31;;;;;;;1.40;1.30;;;13.40;99.90;;;;;;5224240;28;20117;-72
2022/09/28 07:06:03;;;;;;;1.40;1.30;;;13.60;99.90;;;;;;5207242;28;20427;-71
2022/09/28 07:08:37;;;;;;;2.22;1.50;;;13.60;99.90;;;;;;5201479;28;20036;-71
2022/09/28 07:11:08;;;;;;;1.13;1.02;;;13.80;99.90;;;;;;5202881;28;20043;-72
2022/09/28 07:13:41;;;;;;;1.50;1.33;;;14.20;99.90;;;;;;5200314;28;20029;-72
2022/09/28 07:16:12;;;;;;;1.20;1.10;;;14.10;99.90;;;;;;5199968;28;20037;-72
2022/09/28 07:18:46;;;;;;;1.30;1.20;;;14.20;99.90;;;;;;5186513;28;20029;-72
2022/09/28 07:21:17;;;;;;;1.85;1.13;;;14.30;99.90;;;;;;5198156;28;20041;-72
2022/09/28 07:23:52;;;;;;;1.50;1.40;;;14.10;99.90;;;;;;5180876;28;20040;-72
2022/09/28 07:26:24;;;;;;;4.43;1.70;;;14.30;99.90;;;;;;5182161;28;20451;-72
2022/09/28 07:28:58;;;;;;;2.03;1.20;;;14.40;99.90;;;;;;5198630;28;20025;-72
2022/09/28 07:31:31;;;;;;;1.40;1.30;;;14.40;99.90;;;;;;5227923;28;20036;-74
2022/09/28 07:34:02;;;;;;;1.40;1.30;;;14.30;99.90;;;;;;5215493;28;20033;-73
2022/09/28 07:36:34;;;;;;;1.40;1.30;;;14.40;99.90;;;;;;5201197;28;20032;-73
2022/09/28 07:39:05;;;;;;;1.63;1.50;;;14.30;99.90;;;;;;5201545;28;20028;-73
2022/09/28 07:41:38;;;;;;;1.63;1.40;;;14.50;99.90;;;;;;5218607;28;20021;-73
2022/09/28 07:44:12;;;;;;;3.30;1.50;;;14.80;99.90;;;;;;5211416;28;20250;-73
2022/09/28 07:46:43;;;;;;;2.60;1.35;;;14.90;99.90;;;;;;5198814;28;20018;-74
2022/09/28 07:49:15;;;;;;;2.75;1.58;;;15.20;99.90;;;;;;5201824;28;20021;-71
2022/09/28 07:51:48;;;;;;;2.20;1.83;;;15.20;99.90;;;;;;5198531;28;20401;-72
2022/09/28 07:54:20;;;;;;;1.40;1.30;;;14.70;99.90;;;;;;5182558;28;20044;-72
2022/09/28 07:56:52;;;;;;;2.92;1.70;;;14.60;99.90;;;;;;5181681;28;20020;-72
2022/09/28 07:59:23;;;;;;;3.38;1.80;;;14.90;99.90;;;;;;5197113;28;20025;-72
2022/09/28 08:01:55;;;;;;;1.70;1.52;;;15.00;99.90;;;;;;5196579;28;20342;-72
2022/09/28 08:04:29;;;;;;;2.53;1.65;;;15.30;99.90;;;;;;5194158;28;20242;-72
2022/09/28 08:07:01;;;;;;;1.70;1.60;;;15.10;99.90;;;;;;5207513;28;20636;-72
2022/09/28 08:09:35;;;;;;;1.77;1.30;;;15.60;99.90;;;;;;5199501;28;20400;-74
2022/09/28 08:12:10;;;;;;;1.70;1.60;;;15.40;99.90;;;;;;5208193;28;20025;-71
2022/09/28 08:14:41;;;;;;;1.55;1.42;;;14.90;99.90;;;;;;5178295;28;20036;-72
2022/09/28 08:17:14;;;;;;;1.98;1.70;;;14.80;99.90;;;;;;5208138;28;20077;-72
2022/09/28 08:22:38;;;;;;;1.85;1.40;;;14.90;99.90;;;;;;5216339;28;20554;-72
2022/09/28 08:25:14;;;;;;;1.60;1.50;;;15.10;99.90;;;;;;5163101;28;20045;-72
2022/09/28 08:27:45;;;;;;;1.50;1.40;;;15.30;99.90;;;;;;5214034;28;20045;-72
2022/09/28 08:30:19;;;;;;;3.20;1.77;;;15.30;99.90;;;;;;5214034;28;20051;-72
2022/09/28 08:32:50;;;;;;;1.70;1.60;;;15.50;99.90;;;;;;5213456;28;20073;-74
2022/09/28 08:35:24;;;;;;;1.85;1.75;;;15.40;99.90;;;;;;5209650;28;20026;-73
2022/09/28 08:38:02;;;;;;;1.80;1.70;;;15.80;99.90;;;;;;5186206;28;20030;-73
2022/09/28 08:40:56;;;;;;;1.95;1.60;;;16.10;99.90;;;;;;5212542;28;20353;-72
2022/09/28 08:43:58;;;;;;;1.70;1.60;;;16.60;99.90;;;;;;5186524;28;20033;-72
2022/09/28 08:46:38;;;;;;;1.80;1.30;;;16.90;99.90;;;;;;5193087;28;20033;-72
2022/09/28 08:49:13;;;;;;;1.63;1.50;;;16.70;99.90;;;;;;5218280;28;20439;-72
2022/09/28 08:51:51;;;;;;;1.50;1.40;;;16.40;99.90;;;;;;5216980;28;20318;-72
2022/09/28 08:54:33;;;;;;;2.13;1.73;;;16.50;99.90;;;;;;5202726;28;20037;-72
2022/09/28 08:57:11;;;;;;;1.42;1.33;;;16.40;99.90;;;;;;5199548;28;20039;-72
2022/09/28 08:59:48;;;;;;;1.70;1.55;;;16.70;99.90;;;;;;5217488;28;20055;-72
2022/09/28 09:02:27;;;;;;;3.55;1.77;;;16.70;99.90;;;;;;5218985;28;20039;-72
2022/09/28 09:05:06;;;;;;;1.70;1.60;;;16.80;99.90;;;;;;5201801;28;20037;-72
2022/09/28 09:07:56;;;;;;;2.10;1.75;;;16.90;99.90;;;;;;5207490;28;20269;-72
2022/09/28 09:10:54;;;;;;;1.52;1.42;;;17.40;99.90;;;;;;5201064;28;20051;-72
2022/09/28 09:13:40;;;;;;;1.50;1.40;;;17.30;99.90;;;;;;5185822;28;20055;-72
2022/09/28 09:16:20;;;;;;;1.70;1.60;;;17.60;99.90;;;;;;5213664;28;20033;-72
2022/09/28 09:19:08;;;;;;;1.83;1.63;;;17.90;99.90;;;;;;5217707;28;20533;-75
2022/09/28 09:21:44;;;;;;;2.00;1.50;;;18.40;99.90;;;;;;5234553;28;20338;-71
2022/09/28 09:24:29;;;;;;;1.60;1.50;;;18.60;99.90;;;;;;5217347;28;20601;-71
2022/09/28 09:27:09;;;;;;;;;;;19.00;99.90;;;;;;5216024;28;20037;-71
2022/09/28 09:29:52;;;;;;;1.98;1.45;;;19.60;99.90;;;;;;5204665;28;19920;-73
2022/09/28 09:32:42;;;;;;;1.40;1.17;;;20.40;99.90;;;;;;5234028;28;20023;-73
2022/09/28 09:35:13;;;;;;;1.55;1.30;;;20.20;99.90;;;;;;5200501;28;20017;-72
2022/09/28 09:38:09;;;;;;;1.70;1.30;;;19.50;99.90;;;;;;5218634;28;20103;-72
2022/09/28 09:40:55;;;;;;;3.00;1.20;;;19.70;99.90;;;;;;5199023;28;20028;-72
2022/09/28 09:43:43;;;;;;;4.38;1.60;;;19.00;99.90;;;;;;5199126;28;20041;-73
2022/09/28 09:46:37;;;;;;;1.30;1.20;;;18.90;99.90;;;;;;5201074;28;20029;-73
2022/09/28 09:49:27;;;;;;;2.72;1.35;;;19.00;99.90;;;;;;5185787;28;20035;-72
2022/09/28 09:52:34;;;;;;;1.20;1.10;;;19.30;99.90;;;;;;5240452;28;20366;-72
2022/09/28 09:55:17;;;;;;;1.25;1.15;;;19.30;99.90;;;;;;5228981;28;20051;-72
2022/09/28 09:57:56;;;;;;;1.33;1.23;;;19.80;99.90;;;;;;5201402;28;20055;-73
2022/09/28 10:00:28;;;;;;;1.75;1.10;;;21.50;99.90;;;;;;5215960;28;20519;-73
2022/09/28 10:03:02;;;;;;;1.25;1.10;;;22.20;99.90;;;;;;5233033;28;20016;-73
2022/09/28 10:05:37;;;;;;;1.63;0.88;;;22.80;99.90;;;;;;5227345;28;20040;-72
2022/09/28 10:08:22;;;;;;;1.08;1.08;;;23.90;99.90;;;;;;5198980;28;20021;-73
2022/09/28 10:11:01;;;;;;;;;;;24.10;99.90;;;;;;5210903;28;20038;-72
2022/09/28 10:13:35;;;;;;;0.82;0.73;;;23.90;99.90;;;;;;5203463;28;19913;-72
2022/09/28 10:16:06;;;;;;;0.90;0.90;;;23.80;99.90;;;;;;5201274;28;20018;-73
2022/09/28 10:18:37;;;;;;;0.80;0.80;;;23.90;99.90;;;;;;5184659;28;20040;-73
2022/09/28 10:21:20;;;;;;;0.80;0.80;;;24.60;99.90;;;;;;5200690;28;20022;-73
2022/09/28 10:24:01;;;;;;;0.80;0.80;;;24.60;99.90;;;;;;5209128;28;20037;-72
2022/09/28 10:26:36;;;;;;;0.68;0.65;;;24.20;99.90;;;;;;5172770;28;20029;-72
2022/09/28 10:29:21;;;;;;;0.95;0.80;;;23.40;99.90;;;;;;5188584;28;20031;-72
2022/09/28 10:31:55;;;;;;;1.00;0.70;;;22.70;99.90;;;;;;5203897;28;20331;-73
2022/09/28 10:34:30;;;;;;;0.70;0.70;;;22.40;99.90;;;;;;5214376;28;20029;-73
2022/09/28 10:37:05;;;;;;;1.75;0.75;;;23.10;99.90;;;;;;5214543;28;20032;-72
2022/09/28 10:39:47;;;;;;;0.70;0.70;;;23.60;99.90;;;;;;5197574;28;20044;-72
2022/09/28 10:42:31;;;;;;;1.98;0.90;;;22.90;99.90;;;;;;5186687;28;20029;-73
2022/09/28 10:45:17;;;;;;;1.10;1.00;;;23.30;99.90;;;;;;5215004;28;20049;-73
2022/09/28 10:47:51;;;;;;;1.27;0.88;;;22.30;99.90;;;;;;5214004;28;20277;-75
2022/09/28 10:50:26;;;;;;;0.70;0.70;;;21.60;99.90;;;;;;5213589;28;20039;-73
2022/09/28 10:53:20;;;;;;;2.25;0.70;;;21.50;99.90;;;;;;5200753;28;20028;-73
2022/09/28 10:56:04;;;;;;;0.75;0.75;;;21.50;99.90;;;;;;5198438;28;20032;-72
2022/09/28 10:58:39;;;;;;;0.93;0.88;;;21.00;99.90;;;;;;5216177;28;20058;-72
2022/09/28 11:01:15;;;;;;;0.80;0.80;;;20.90;99.90;;;;;;5210300;28;20035;-73
2022/09/28 11:04:03;;;;;;;0.75;0.75;;;21.30;99.90;;;;;;5192128;28;20037;-72
2022/09/28 11:06:43;;;;;;;0.60;0.60;;;21.70;99.90;;;;;;5160051;28;20462;-72
2022/09/28 11:09:47;;;;;;;1.17;0.82;;;22.40;99.90;;;;;;5189312;28;20026;-72
2022/09/28 11:12:25;;;;;;;0.73;0.73;;;22.30;99.90;;;;;;5203271;28;20021;-73
2022/09/28 11:15:05;;;;;;;0.80;0.80;;;22.30;99.90;;;;;;5201144;28;20032;-73
2022/09/28 11:17:39;;;;;;;0.73;0.70;;;21.80;99.90;;;;;;5205844;28;20025;-72
2022/09/28 11:20:22;;;;;;;1.83;0.90;;;21.80;99.90;;;;;;5201083;28;20031;-74
2022/09/28 11:23:25;;;;;;;2.45;0.88;;;21.50;99.90;;;;;;5204515;28;20033;-72
2022/09/28 11:26:02;;;;;;;2.20;0.70;;;21.50;99.90;;;;;;5213755;28;20033;-73
2022/09/28 11:28:37;;;;;;;0.80;0.80;;;21.00;99.90;;;;;;5196517;28;20409;-73
2022/09/28 11:31:10;;;;;;;0.73;0.70;;;21.40;99.90;;;;;;5203383;28;20041;-73
2022/09/28 11:33:45;;;;;;;0.80;0.80;;;22.00;99.90;;;;;;5222195;28;20041;-73
2022/09/28 11:36:52;;;;;;;0.90;0.90;;;22.20;99.90;;;;;;5217040;28;20031;-73
2022/09/28 11:39:50;;;;;;;4.47;0.90;;;22.80;99.90;;;;;;5215240;28;20028;-72
2022/09/28 11:42:52;;;;;;;1.70;0.90;;;23.70;99.90;;;;;;5216233;28;20640;-72
2022/09/28 11:45:49;;;;;;;2.65;0.90;;;24.30;99.90;;;;;;5216378;28;20152;-73
2022/09/28 11:48:27;;;;;;;1.15;0.93;;;25.50;99.90;;;;;;5113098;28;20047;-72
2022/09/28 11:51:04;;;;;;;1.95;0.82;;;26.00;99.90;;;;;;5110842;28;20050;-74
2022/09/28 11:53:49;;;;;;;0.93;0.90;;;25.70;99.90;;;;;;5103053;29;20027;-72
2022/09/28 11:56:46;;;;;;;1.00;0.82;;;25.80;99.90;;;;;;5114079;28;20170;-73
2022/09/28 11:59:57;;;;;;;0.70;0.70;;;26.70;99.90;;;;;;5140856;28;20048;-72
2022/09/28 12:02:38;;;;;;;0.95;0.85;;;26.30;99.90;;;;;;5220421;28;20048;-73
2022/09/28 12:05:29;;;;;;;0.70;0.70;;;24.10;99.90;;;;;;5227483;28;20063;-72
2022/09/28 12:08:03;;;;;;;2.42;0.90;;;23.60;99.90;;;;;;5240562;28;20027;-73
2022/09/28 12:10:40;;;;;;;1.00;0.90;;;23.50;99.90;;;;;;5236500;28;20025;-73
2022/09/28 12:13:26;;;;;;;2.35;1.00;;;23.30;99.90;;;;;;5202691;28;20381;-72
2022/09/28 12:16:02;;;;;;;0.70;0.70;;;22.90;99.90;;;;;;5216284;28;20033;-72
2022/09/28 12:18:45;;;;;;;1.63;1.00;;;22.90;99.90;;;;;;5207959;28;20043;-73
2022/09/28 12:21:25;;;;;;;0.90;0.90;;;23.00;99.90;;;;;;5182326;28;20041;-74
2022/09/28 12:24:27;;;;;;;1.50;0.90;;;22.40;99.90;;;;;;5186199;28;20045;-73
2022/09/28 12:27:16;;;;;;;0.90;0.90;;;22.00;99.90;;;;;;5202593;28;20340;-73
2022/09/28 12:30:00;;;;;;;0.80;0.80;;;22.40;99.90;;;;;;5193165;28;20041;-72
2022/09/28 12:32:31;;;;;;;0.93;0.93;;;22.50;99.90;;;;;;5215274;28;20028;-74
2022/09/28 12:35:11;;;;;;;1.63;1.00;;;22.00;99.90;;;;;;5219634;28;20215;-74
2022/09/28 12:38:07;;;;;;;0.80;0.80;;;22.20;99.90;;;;;;5208694;28;20041;-73
2022/09/28 12:40:57;;;;;;;1.00;0.90;;;21.80;99.90;;;;;;5192583;28;20037;-74
2022/09/28 12:43:53;;;;;;;0.70;0.70;;;21.60;99.90;;;;;;5212144;28;20036;-73
2022/09/28 12:46:52;;;;;;;6.25;1.10;;;21.50;99.90;;;;;;5213501;28;20570;-73
2022/09/28 12:49:45;;;;;;;2.22;1.10;;;21.10;99.90;;;;;;5199418;28;20025;-73
2022/09/28 12:52:48;;;;;;;1.40;1.30;;;20.00;99.90;;;;;;5209149;28;20033;-73
2022/09/28 12:55:45;;;;;;;1.92;1.13;;;19.80;99.90;;;;;;5194058;28;20037;-72
2022/09/28 12:58:23;;;;;;;1.50;1.40;;;19.60;99.90;;;;;;5187304;28;20040;-74
2022/09/28 13:01:04;;;;;;;1.38;1.10;;;20.40;99.90;;;;;;5196905;28;20267;-72
2022/09/28 13:04:12;;;;;;;1.95;0.80;;;20.80;99.90;;;;;;5220142;28;20025;-72
2022/09/28 13:07:04;;;;;;;1.40;0.98;;;21.20;99.90;;;;;;5163192;28;20065;-74
2022/09/28 13:09:47;;;;;;;1.10;1.00;;;22.50;99.90;;;;;;5216139;28;20532;-72
2022/09/28 13:12:30;;;;;;;1.52;0.80;;;22.90;99.90;;;;;;5196084;28;20181;-72
2022/09/28 13:15:16;;;;;;;1.48;0.77;;;23.80;99.90;;;;;;5217149;28;20021;-73
2022/09/28 13:18:11;;;;;;;0.60;0.60;;;23.80;99.90;;;;;;5216594;28;20033;-72
2022/09/28 13:20:42;;;;;;;0.82;0.82;;;22.90;99.90;;;;;;5199365;28;20045;-72
2022/09/28 13:23:24;;;;;;;0.80;0.80;;;23.10;99.90;;;;;;5220561;28;20035;-74
2022/09/28 13:26:09;;;;;;;0.70;0.70;;;23.10;99.90;;;;;;5200419;28;20029;-73
2022/09/28 13:28:44;;;;;;;0.50;0.50;;;23.80;99.90;;;;;;5201144;28;20025;-72
2022/09/28 13:31:30;;;;;;;0.45;0.45;;;23.70;99.90;;;;;;5202459;28;20021;-74
2022/09/28 13:34:03;;;;;;;0.55;0.55;;;23.90;99.90;;;;;;5196911;28;20029;-73
2022/09/28 13:36:36;;;;;;;0.60;0.60;;;23.70;99.90;;;;;;5203750;28;20040;-73
2022/09/28 13:39:50;;;;;;;0.73;0.73;;;23.80;99.90;;;;;;5218513;28;20032;-73
2022/09/28 13:42:52;;;;;;;0.85;0.85;;;23.60;99.90;;;;;;5220505;28;20269;-73
2022/09/28 13:45:40;;;;;;;0.98;0.70;;;22.30;99.90;;;;;;5188505;28;20032;-72
2022/09/28 13:48:20;;;;;;;3.67;1.33;;;21.00;99.90;;;;;;5217147;28;20025;-72
2022/09/28 13:51:10;;;;;;;0.68;0.68;;;20.30;99.90;;;;;;5219507;28;20028;-73
2022/09/28 13:53:44;;;;;;;0.70;0.70;;;20.00;99.90;;;;;;5210498;28;20021;-73
2022/09/28 13:56:26;;;;;;;0.75;0.75;;;19.90;99.90;;;;;;5198327;28;20037;-73